ěÝzenÝ letovÚho provozu ╚eskÚ republiky
Letiste: LKLN Aktualizace: 24.09.2020 18:26:24  UTC
 METAR LKLN 24.09. 18:30 ...
METAR LKLN 241830Z AUTO VRB01KT 9999 SCT160 14/12 Q1006=